Latest Weather Observations for Coober Pedy Airport

IDS60801

Issued at 7:31 am CDT Thursday 30 March 2017 (issued every 30 minutes, with the page automatically refreshed every 10 minutes)

About weather observations | Map of weather stations | Latest weather observations for SA | Other Formats
Station Details ID: 016090 Name: COOBER PEDY AIRPORT Lat: -29.03 Lon: 134.72 Height: 225.0 m
Data from the previous 72 hours. | See also: Recent months at Coober Pedy Airport
Date/Time
CDT
Temp
°C
App
Temp
°C
Dew
Point
°C
Rel
Hum
%
Delta-T
°C
Wind Press
QNH
hPa
Press
MSL
hPa
Rain since
9am
mm
Dir  Spd
km/h
Gust
km/h
Spd
kts
Gust
kts
30/07:30am 11.8 8.2 5.2 64 3.1 SSW 13 15 7 8 1024.2 1023.1 0.0
30/07:00am 12.3 8.4 5.2 62 3.3 SSW 15 17 8 9 1023.8 1022.7 0.0
30/06:30am 12.8 8.6 5.5 61 3.4 SSW 17 20 9 11 1023.5 1022.4 0.0
30/06:00am 13.1 8.5 5.5 60 3.6 SSW 19 22 10 12 1022.9 1021.8 0.0
30/05:30am 13.6 8.4 5.7 59 3.8 S 22 26 12 14 1022.6 1021.4 0.0
30/05:00am 13.9 7.6 5.8 58 3.9 S 28 33 15 18 1022.3 1021.1 0.0
30/04:30am 14.2 7.9 5.8 57 4.0 SSW 28 35 15 19 1022.1 1020.9 0.0
30/04:00am 14.5 7.8 5.6 55 4.3 SSW 30 35 16 19 1021.8 1020.7 0.0
30/03:30am 14.9 7.8 5.4 53 4.5 SSW 32 39 17 21 1022.1 1020.9 0.0
30/03:00am 15.1 7.9 5.0 51 4.8 SSW 32 44 17 24 1022.1 1020.9 0.0
30/02:30am 15.5 7.7 4.8 49 5.1 SSW 35 44 19 24 1021.7 1020.6 0.0
30/02:00am 15.9 7.3 4.6 47 5.4 SSW 39 48 21 26 1021.5 1020.4 0.0
30/01:30am 16.3 8.0 5.9 50 5.1 S 39 50 21 27 1021.2 1020.1 0.0
30/01:00am 16.8 8.7 6.9 52 5.0 S 39 50 21 27 1020.6 1019.5 0.0
30/12:30am 17.5 8.6 7.0 50 5.3 SSW 43 52 23 28 1020.7 1019.6 0.0
30/12:00am 18.1 10.2 7.8 51 5.3 S 39 54 21 29 1020.4 1019.3 0.0
 
Date/Time
CDT
Temp
°C
App
Temp
°C
Dew
Point
°C
Rel
Hum
%
Delta-T
°C
Wind Press
QNH
hPa
Press
MSL
hPa
Rain since
9am
mm
Dir  Spd
km/h
Gust
km/h
Spd
kts
Gust
kts
29/11:30pm 18.7 10.8 7.8 49 5.6 SSW 39 48 21 26 1020.6 1019.5 0.0
29/11:00pm 19.2 11.9 8.8 51 5.5 S 37 48 20 26 1020.4 1019.3 0.0
29/10:30pm 19.7 11.2 9.3 51 5.5 SSW 44 59 24 32 1020.0 1018.9 0.0
29/10:00pm 20.4 11.7 9.9 51 5.7 S 46 57 25 31 1019.4 1018.3 0.0
29/09:30pm 21.2 12.5 11.2 53 5.6 S 48 57 26 31 1018.9 1017.7 0.0
29/09:00pm 22.0 12.7 12.0 53 5.7 SSW 52 65 28 35 1018.1 1016.9 0.0
29/08:30pm 23.7 13.9 11.4 46 7.0 SSW 54 69 29 37 1016.9 1015.8 0.0
29/08:23pm 24.7 16.2 10.6 41 7.9 SSW 46 69 25 37 1016.8 1015.7 0.0
29/08:00pm 25.6 17.1 9.4 36 9.0 SSW 44 54 24 29 1016.4 1015.3 0.0
29/07:30pm 26.4 17.6 7.4 30 10.2 SSW 43 52 23 28 1015.6 1014.5 0.0
29/07:00pm 27.7 18.7 6.5 26 11.3 SSW 43 52 23 28 1015.1 1014.0 0.0
29/06:30pm 28.8 19.9 5.0 22 12.4 SSW 41 52 22 28 1014.6 1013.4 0.0
29/06:00pm 29.0 21.4 3.8 20 12.9 SSW 33 44 18 24 1014.3 1013.1 0.0
29/05:30pm 29.2 20.8 1.7 17 13.6 SSW 35 50 19 27 1013.9 1012.7 0.0
29/05:00pm 29.6 21.7 1.1 16 14.0 SW 32 41 17 22 1013.8 1012.6 0.0
29/04:30pm 29.9 22.1 3.0 18 13.7 SSW 33 44 18 24 1013.7 1012.5 0.0
29/04:00pm 31.0 22.3 2.3 16 14.5 SSW 37 50 20 27 1013.7 1012.5 0.0
29/03:30pm 30.7 22.6 1.1 15 14.6 SSW 33 46 18 25 1013.8 1012.6 0.0
29/03:00pm 31.1 24.2 2.3 16 14.6 SW 28 41 15 22 1014.0 1012.8 0.0
29/02:38pm 29.1 21.5 3.1 19 13.2 SSW 32 50 17 27 1014.5 1013.3 0.0
29/02:30pm 31.4 23.9 3.4 17 14.4 SW 32 46 17 25 1014.4 1013.2 0.0
29/02:00pm 30.1 22.3 4.7 20 13.3 SW 35 46 19 25 1014.9 1013.7 0.0
29/01:30pm 28.9 21.6 4.4 21 12.7 SSW 32 44 17 24 1015.1 1014.0 0.0
29/01:00pm 28.5 22.0 4.7 22 12.3 SSW 28 37 15 20 1015.4 1014.3 0.0
29/12:30pm 27.7 20.6 5.3 24 11.7 S 32 39 17 21 1015.6 1014.5 0.0
29/12:00pm 27.4 21.7 5.1 24 11.6 S 24 33 13 18 1015.8 1014.7 0.0
29/11:30am 26.1 20.9 5.7 27 10.6 S 22 32 12 17 1015.8 1014.7 0.0
29/11:00am 24.9 20.6 5.2 28 10.1 SSE 17 28 9 15 1015.9 1014.8 0.0
29/10:30am 23.6 20.1 5.5 31 9.2 SSE 13 17 7 9 1016.0 1014.9 0.0
29/10:00am 22.3 17.8 6.1 35 8.3 SSE 19 20 10 11 1015.8 1014.7 0.0
29/09:30am 20.8 16.4 6.7 40 7.2 SSE 19 22 10 12 1015.6 1014.5 0.0
29/09:00am 19.0 14.9 6.2 43 6.4 SSE 17 20 9 11 1015.2 1014.1 0.0
29/08:30am 17.3 13.2 4.6 43 6.1 SSE 15 19 8 10 1014.8 1013.6 0.0
29/08:00am 15.8 11.3 1.9 39 6.2 SSE 15 17 8 9 1014.5 1013.3 0.0
29/07:30am 15.8 10.7 0.8 36 6.6 S 17 17 9 9 1014.2 1013.0 0.0
29/07:00am 16.1 10.6 0.7 35 6.8 S 19 22 10 12 1013.9 1012.7 0.0
29/06:30am 17.0 12.3 1.0 34 7.1 SSE 15 15 8 8 1013.3 1012.1 0.0
29/06:00am 17.3 12.6 0.9 33 7.3 SE 15 15 8 8 1012.8 1011.6 0.0
29/05:30am 17.7 13.4 0.8 32 7.5 SE 13 15 7 8 1012.5 1011.4 0.0
29/05:00am 18.0 13.3 0.6 31 7.7 SE 15 17 8 9 1012.4 1011.3 0.0
29/04:30am 18.0 13.3 0.6 31 7.7 SE 15 17 8 9 1012.3 1011.2 0.0
29/04:00am 18.6 13.9 0.7 30 8.0 SE 15 17 8 9 1012.5 1011.4 0.0
29/03:30am 18.6 14.2 0.2 29 8.2 SE 13 15 7 8 1012.8 1011.6 0.0
29/03:00am 19.3 15.0 0.8 29 8.4 SSE 13 15 7 8 1013.1 1011.9 0.0
29/02:30am 20.2 15.2 1.1 28 8.7 SSE 17 17 9 9 1013.1 1011.9 0.0
29/02:00am 20.2 15.5 1.1 28 8.7 SSE 15 17 8 9 1013.1 1011.9 0.0
29/01:30am 20.5 15.8 0.9 27 9.0 SE 15 17 8 9 1013.2 1012.0 0.0
29/01:00am 21.2 16.5 1.0 26 9.3 SE 15 17 8 9 1013.4 1012.2 0.0
29/12:30am 21.5 16.8 0.7 25 9.5 SSE 15 17 8 9 1013.7 1012.5 0.0
29/12:00am 21.6 16.8 0.2 24 9.7 SSE 15 15 8 8 1014.1 1012.9 0.0
 
Date/Time
CDT
Temp
°C
App
Temp
°C
Dew
Point
°C
Rel
Hum
%
Delta-T
°C
Wind Press
QNH
hPa
Press
MSL
hPa
Rain since
9am
mm
Dir  Spd
km/h
Gust
km/h
Spd
kts
Gust
kts
28/11:30pm 21.9 17.4 -0.1 23 10.0 S 13 15 7 8 1014.3 1013.1 0.0
28/11:00pm 22.3 17.7 -1.1 21 10.4 S 13 15 7 8 1014.4 1013.2 0.0
28/10:30pm 22.3 17.7 -1.1 21 10.4 S 13 15 7 8 1014.5 1013.3 0.0
28/10:00pm 23.2 18.5 -1.7 19 11.1 S 13 15 7 8 1014.4 1013.2 0.0
28/09:30pm 24.0 19.8 -1.0 19 11.3 S 11 13 6 7 1014.3 1013.1 0.0
28/09:00pm 24.8 20.2 -1.1 18 11.8 S 13 15 7 8 1014.1 1012.9 0.0
28/08:30pm 25.8 22.0 -1.1 17 12.3 S 9 11 5 6 1013.9 1012.7 0.0
28/08:00pm 27.1 22.9 -0.9 16 13.0 SSW 11 13 6 7 1013.7 1012.5 0.0
28/07:30pm 28.4 23.5 -0.7 15 13.7 SSW 15 19 8 10 1013.5 1012.3 0.0
28/07:00pm 29.2 24.2 -1.0 14 14.2 SSW 15 20 8 11 1013.4 1012.2 0.0
28/06:30pm 29.6 24.7 -0.7 14 14.4 SSW 15 20 8 11 1013.2 1012.0 0.0
28/06:00pm 30.2 24.8 -1.2 13 14.9 S 17 24 9 13 1013.2 1012.0 0.0
28/05:30pm 29.9 24.6 -0.5 14 14.5 SSW 17 26 9 14 1013.2 1012.0 0.0
28/05:00pm 30.1 24.8 -0.3 14 14.6 SSW 17 24 9 13 1013.4 1012.2 0.0
28/04:30pm 29.8 24.5 -0.5 14 14.5 SSW 17 28 9 15 1013.6 1012.4 0.0
28/04:00pm 29.1 23.5 -0.1 15 14.0 SSW 19 26 10 14 1013.7 1012.5 0.0
28/03:30pm 28.8 23.5 2.1 18 13.2 SSW 19 24 10 13 1014.2 1013.0 0.0
28/03:00pm 28.5 23.1 2.7 19 12.9 SSW 20 30 11 16 1014.6 1013.4 0.0
28/02:30pm 27.8 22.7 4.2 22 12.1 SSW 20 28 11 15 1014.9 1013.7 0.0
28/02:00pm 27.2 22.4 4.9 24 11.5 SSW 19 32 10 17 1015.4 1014.3 0.0
28/01:30pm 26.2 21.4 5.7 27 10.7 SSW 20 33 11 18 1015.8 1014.7 0.0
28/01:00pm 25.5 20.3 5.7 28 10.3 SSW 22 35 12 19 1016.3 1015.2 0.0
28/12:30pm 24.7 19.7 6.4 31 9.5 S 22 30 12 16 1016.6 1015.5 0.0
28/12:00pm 23.6 18.7 6.8 34 8.8 S 22 30 12 16 1017.1 1016.0 0.0
28/11:30am 23.0 18.2 7.5 37 8.2 S 22 33 12 18 1017.7 1016.5 0.0
28/11:00am 22.0 16.7 8.5 42 7.2 SSE 26 33 14 18 1017.9 1016.7 0.0
28/10:30am 20.9 16.2 9.2 47 6.3 SSE 24 32 13 17 1018.0 1016.8 0.0
28/10:00am 20.1 14.7 9.4 50 5.7 SSE 28 33 15 18 1017.9 1016.7 0.0
28/09:30am 18.8 13.3 9.3 54 5.0 SSE 28 32 15 17 1018.1 1016.9 0.0
28/09:00am 17.5 12.4 9.2 58 4.4 SSE 26 33 14 18 1017.9 1016.7 0.2
28/08:30am 16.2 12.1 8.7 61 3.9 S 20 26 11 14 1017.8 1016.6 0.2
28/08:00am 15.6 11.4 8.1 61 3.8 S 20 24 11 13 1017.5 1016.3 0.2
28/07:30am 15.7 11.4 7.7 59 4.0 S 20 24 11 13 1017.1 1016.0 0.2
28/07:00am 16.0 11.2 7.5 57 4.3 S 22 28 12 15 1016.9 1015.8 0.2
28/06:30am 16.3 11.5 7.3 55 4.5 S 22 26 12 14 1016.5 1015.4 0.2
28/06:00am 16.6 12.2 7.5 55 4.6 S 20 24 11 13 1016.3 1015.2 0.2
28/05:30am 17.1 12.0 7.5 53 4.9 S 24 32 13 17 1016.0 1014.9 0.2
28/05:00am 17.6 12.4 7.4 51 5.2 S 24 30 13 16 1015.7 1014.6 0.2
28/04:30am 18.1 12.4 6.9 48 5.7 S 26 32 14 17 1015.5 1014.4 0.2
28/04:00am 18.5 12.8 6.7 46 6.0 S 26 30 14 16 1015.5 1014.4 0.2
28/03:30am 19.0 13.2 6.2 43 6.4 S 26 30 14 16 1015.7 1014.6 0.2
28/03:00am 19.6 13.3 5.6 40 7.0 S 28 33 15 18 1015.9 1014.8 0.2
28/02:30am 20.0 13.9 4.9 37 7.4 S 26 32 14 17 1015.9 1014.8 0.2
28/02:00am 20.7 14.9 4.3 34 8.0 S 24 32 13 17 1016.0 1014.9 0.2
28/01:30am 21.3 15.4 4.0 32 8.4 S 24 30 13 16 1015.8 1014.7 0.2
28/01:00am 21.9 15.9 3.6 30 8.9 S 24 28 13 15 1015.9 1014.8 0.2
28/12:30am 22.5 17.3 3.6 29 9.2 S 20 26 11 14 1016.0 1014.9 0.2
28/12:00am 23.3 17.0 3.8 28 9.6 S 26 32 14 17 1016.2 1015.1 0.2
 
Date/Time
CDT
Temp
°C
App
Temp
°C
Dew
Point
°C
Rel
Hum
%
Delta-T
°C
Wind Press
QNH
hPa
Press
MSL
hPa
Rain since
9am
mm
Dir  Spd
km/h
Gust
km/h
Spd
kts
Gust
kts
27/11:30pm 23.3 18.4 4.3 29 9.4 S 19 22 10 12 1016.3 1015.2 0.2
27/11:00pm 23.5 19.1 4.5 29 9.5 S 17 22 9 12 1016.3 1015.2 0.2
27/10:30pm 24.5 19.7 4.8 28 10.0 S 19 22 10 12 1016.3 1015.2 0.2
27/10:00pm 25.0 20.0 4.7 27 10.3 S 20 24 11 13 1016.0 1014.9 0.2
27/09:30pm 25.7 20.8 5.3 27 10.5 S 20 26 11 14 1015.9 1014.8 0.2
27/09:00pm 26.1 21.1 4.6 25 11.0 S 20 24 11 13 1015.6 1014.5 0.2
27/08:30pm 26.8 21.1 5.1 25 11.2 S 24 32 13 17 1015.4 1014.3 0.2
27/08:00pm 27.5 21.2 5.7 25 11.4 S 28 35 15 19 1015.1 1014.0 0.2
27/07:30pm 28.0 21.5 6.7 26 11.4 S 30 39 16 21 1014.8 1013.6 0.2
27/07:00pm 28.9 22.1 6.9 25 11.9 SSW 32 41 17 22 1014.7 1013.5 0.2
27/06:32pm 29.3 22.5 6.7 24 12.2 SSW 32 52 17 28 1014.4 1013.2 0.2
27/06:30pm 29.2 22.9 7.2 25 11.9 S 30 35 16 19 1014.5 1013.3 0.2
27/06:00pm 29.5 22.1 6.8 24 12.3 SSW 35 43 19 23 1014.5 1013.3 0.2
27/05:30pm 30.0 23.2 7.8 25 12.2 SSW 33 48 18 26 1014.3 1013.1 0.2
27/05:00pm 30.1 22.4 7.3 24 12.5 SSW 37 52 20 28 1014.2 1013.0 0.2
27/04:30pm 30.1 23.1 8.5 26 12.0 S 35 46 19 25 1014.2 1013.0 0.2
27/04:00pm 30.7 23.5 9.0 26 12.2 S 37 48 20 26 1014.2 1013.0 0.2
27/03:30pm 30.9 24.1 9.2 26 12.3 S 35 46 19 25 1014.3 1013.1 0.2
27/03:28pm 30.7 23.5 9.0 26 12.2 S 37 48 20 26 1014.3 1013.1 0.2
27/03:00pm 30.8 23.3 9.6 27 12.1 SSW 39 52 21 28 1014.5 1013.3 0.2
27/02:30pm 30.4 23.3 10.9 30 11.3 S 39 54 21 29 1014.6 1013.4 0.2
27/02:23pm 29.8 22.6 10.4 30 11.1 S 39 54 21 29 1014.9 1013.7 0.2
27/02:00pm 30.1 23.1 11.1 31 11.0 SSW 39 52 21 28 1015.2 1014.1 0.2
27/01:30pm 29.4 22.1 11.5 33 10.4 SSW 41 50 22 27 1015.4 1014.3 0.2
27/01:00pm 28.5 22.2 11.1 34 10.0 S 35 48 19 26 1015.5 1014.4 0.2
27/12:30pm 27.3 20.3 11.3 37 9.2 S 39 50 21 27 1015.7 1014.6 0.2
27/12:00pm 26.4 18.9 10.9 38 8.8 S 41 52 22 28 1015.9 1014.8 0.2
27/11:30am 25.8 17.5 10.0 37 8.8 S 44 54 24 29 1015.9 1014.8 0.2
27/11:00am 24.7 15.6 9.8 39 8.3 S 48 59 26 32 1015.9 1014.8 0.0
27/10:30am 23.6 15.2 11.0 45 7.1 S 46 56 25 30 1015.8 1014.7 0.0
27/10:00am 24.3 14.3 10.9 43 7.6 S 54 69 29 37 1015.3 1014.2 0.0
27/09:30am 23.8 15.4 12.4 48 6.6 S 48 61 26 33 1014.8 1013.6 0.0
27/09:00am 23.4 15.9 13.8 54 5.7 S 46 57 25 31 1014.3 1013.1 1.0
27/08:30am 22.5 15.2 14.6 61 4.7 S 46 57 25 31 1013.7 1012.5 1.0
27/08:00am 22.1 13.8 15.0 64 4.2 S 52 61 28 33 1013.2 1012.0 1.0

Other Formats:

Comma delimited format used in spreadsheet applications
http://www.bom.gov.au/fwo/IDS60801/IDS60801.95458.axf

JavaScript Object Notation format (JSON) in row-major order
http://www.bom.gov.au/fwo/IDS60801/IDS60801.95458.json